Time;durP1;ratioP1;P1;durP2;ratioP2;P2;SDS_P1;SDS_P2;PMS_P1;PMS_P2;Temp;Humidity;BMP_temperature;BMP_pressure;BME280_temperature;BME280_humidity;BME280_pressure;Samples;Min_cycle;Max_cycle;Signal;HPM_P1;HPM_P2
2020/12/18 00:01:13;;;;;;;18.23;15.97;;;5.90;99.90;;;;;;4992951;28;20727;-25
2020/12/18 00:03:41;;;;;;;20.90;17.10;;;5.80;99.90;;;;;;4992997;28;20522;-25
2020/12/18 00:06:09;;;;;;;24.43;20.37;;;5.80;99.90;;;;;;4993506;28;20531;-25
2020/12/18 00:08:38;;;;;;;33.17;24.40;;;5.80;99.90;;;;;;4993952;28;20461;-25
2020/12/18 00:11:05;;;;;;;25.17;22.03;;;5.80;99.90;;;;;;4994324;28;20444;-25
2020/12/18 00:13:31;;;;;;;21.37;18.43;;;5.70;99.90;;;;;;4993065;28;20868;-25
2020/12/18 00:15:59;;;;;;;17.30;15.57;;;5.70;99.90;;;;;;4992678;28;20445;-25
2020/12/18 00:18:27;;;;;;;24.33;20.00;;;5.70;99.90;;;;;;4993614;28;20743;-25
2020/12/18 00:20:54;;;;;;;20.03;15.80;;;5.70;99.90;;;;;;4993059;28;20559;-25
2020/12/18 00:23:25;;;;;;;19.00;15.77;;;5.60;99.90;;;;;;4993550;28;20503;-25
2020/12/18 00:25:53;;;;;;;16.43;14.60;;;5.60;99.90;;;;;;4991965;28;20463;-25
2020/12/18 00:28:20;;;;;;;15.53;13.93;;;5.60;99.90;;;;;;4990237;28;20439;-25
2020/12/18 00:30:48;;;;;;;15.50;14.10;;;5.60;99.90;;;;;;4991298;28;20507;-25
2020/12/18 00:33:20;;;;;;;17.37;15.53;;;5.50;99.90;;;;;;4973674;28;20438;-25
2020/12/18 00:35:48;;;;;;;19.20;16.53;;;5.50;99.90;;;;;;4974484;28;20789;-25
2020/12/18 00:38:15;;;;;;;17.90;15.63;;;5.40;99.90;;;;;;4973862;28;20445;-25
2020/12/18 00:40:42;;;;;;;18.27;15.70;;;5.40;99.90;;;;;;4974144;28;20890;-25
2020/12/18 00:43:10;;;;;;;15.60;14.10;;;5.40;99.90;;;;;;4973920;28;20884;-25
2020/12/18 00:45:38;;;;;;;15.67;14.10;;;5.40;99.90;;;;;;4990119;28;20499;-25
2020/12/18 00:48:07;;;;;;;15.30;13.70;;;5.30;99.90;;;;;;4992586;28;20506;-25
2020/12/18 00:50:34;;;;;;;22.50;15.63;;;5.30;99.90;;;;;;4992557;28;20460;-25
2020/12/18 00:53:01;;;;;;;16.73;14.17;;;5.30;99.90;;;;;;4992262;28;20436;-25
2020/12/18 00:55:31;;;;;;;18.20;14.43;;;5.30;99.90;;;;;;4992465;28;20440;-25
2020/12/18 00:58:00;;;;;;;16.67;13.20;;;5.30;99.90;;;;;;4973937;28;20462;-25
2020/12/18 01:00:27;;;;;;;15.70;13.73;;;5.30;99.90;;;;;;4993843;28;20467;-25
2020/12/18 01:03:06;;;;;;;17.93;14.30;;;5.40;99.90;;;;;;4992138;28;20433;-25
2020/12/18 01:05:34;;;;;;;15.33;12.93;;;5.40;99.90;;;;;;4992744;28;20741;-25
2020/12/18 01:08:02;;;;;;;16.50;13.23;;;5.40;99.90;;;;;;4992359;28;20453;-25
2020/12/18 01:10:33;;;;;;;16.23;14.50;;;5.50;99.90;;;;;;4991495;28;20787;-25
2020/12/18 01:13:02;;;;;;;18.47;16.10;;;5.50;99.90;;;;;;4990569;28;20444;-25
2020/12/18 01:15:33;;;;;;;24.47;17.30;;;5.50;99.90;;;;;;4990537;28;20463;-25
2020/12/18 01:18:11;;;;;;;18.90;16.37;;;5.50;99.90;;;;;;4973795;28;20444;-25
2020/12/18 01:20:44;;;;;;;17.27;15.40;;;5.50;99.90;;;;;;4983884;28;20448;-25
2020/12/18 01:23:12;;;;;;;17.67;15.70;;;5.50;99.90;;;;;;4991538;28;20459;-25
2020/12/18 01:25:42;;;;;;;20.90;17.63;;;5.50;99.90;;;;;;4813587;28;20456;-24
2020/12/18 01:28:09;;;;;;;20.33;18.23;;;5.50;99.90;;;;;;4673897;28;20436;-24
2020/12/18 01:30:37;;;;;;;19.63;15.20;;;5.50;99.90;;;;;;4700312;28;20650;-24
2020/12/18 01:33:04;;;;;;;20.90;15.90;;;5.50;99.90;;;;;;4846131;28;20535;-25
2020/12/18 01:35:30;;;;;;;21.77;15.87;;;5.50;99.90;;;;;;4738740;28;20967;-25
2020/12/18 01:38:04;;;;;;;27.50;16.60;;;5.50;99.90;;;;;;4989851;28;20441;-25
2020/12/18 01:40:34;;;;;;;26.13;17.53;;;5.40;99.90;;;;;;5004005;28;20492;-24
2020/12/18 01:43:05;;;;;;;23.60;18.00;;;5.40;99.90;;;;;;5007114;28;21081;-24
2020/12/18 01:45:33;;;;;;;23.53;18.50;;;5.40;99.90;;;;;;5006596;28;20452;-24
2020/12/18 01:48:07;;;;;;;26.70;19.67;;;5.40;99.90;;;;;;4991737;28;20818;-24
2020/12/18 01:50:47;;;;;;;36.50;17.20;;;5.40;99.90;;;;;;5007155;28;20443;-24
2020/12/18 01:53:16;;;;;;;29.37;18.00;;;5.50;99.90;;;;;;4991492;28;20479;-24
2020/12/18 01:55:58;;;;;;;35.97;18.60;;;5.50;99.90;;;;;;4992073;28;20444;-25
2020/12/18 01:58:28;;;;;;;29.43;17.80;;;5.60;99.90;;;;;;5007232;28;20543;-24
2020/12/18 02:01:02;;;;;;;28.10;17.77;;;5.60;99.90;;;;;;5006563;28;20478;-24
2020/12/18 02:03:36;;;;;;;33.03;20.33;;;5.70;99.90;;;;;;5006721;28;20456;-24
2020/12/18 02:06:14;;;;;;;28.07;21.10;;;5.70;99.90;;;;;;4991146;28;20466;-24
2020/12/18 02:08:50;;;;;;;25.27;18.30;;;5.80;99.90;;;;;;5005914;28;20460;-24
2020/12/18 02:11:39;;;;;;;25.43;18.27;;;5.80;99.90;;;;;;4991076;28;20797;-24
2020/12/18 02:14:14;;;;;;;26.97;18.80;;;5.90;99.90;;;;;;5007523;28;20892;-24
2020/12/18 02:16:45;;;;;;;24.70;17.00;;;5.90;99.90;;;;;;5006736;28;20534;-24
2020/12/18 02:19:20;;;;;;;21.80;16.97;;;6.00;99.90;;;;;;4967513;28;20587;-24
2020/12/18 02:21:51;;;;;;;19.90;16.80;;;6.00;99.90;;;;;;4990948;28;20472;-24
2020/12/18 02:24:25;;;;;;;19.63;17.53;;;6.10;99.90;;;;;;4991048;28;20449;-24
2020/12/18 02:26:57;;;;;;;18.10;15.63;;;6.10;99.90;;;;;;4991135;28;20448;-24
2020/12/18 02:29:27;;;;;;;19.17;16.77;;;6.10;99.90;;;;;;4990453;28;20763;-24
2020/12/18 02:32:06;;;;;;;19.67;15.63;;;6.20;99.90;;;;;;4989167;28;20717;-24
2020/12/18 02:34:41;;;;;;;18.80;16.30;;;6.20;99.90;;;;;;4991004;28;20518;-25
2020/12/18 02:37:20;;;;;;;15.93;13.70;;;6.20;99.90;;;;;;4989719;28;20459;-24
2020/12/18 02:39:47;;;;;;;19.90;12.93;;;6.20;99.90;;;;;;4989963;28;20436;-24
2020/12/18 02:42:30;;;;;;;14.67;12.37;;;6.20;99.90;;;;;;4990862;28;21086;-24
2020/12/18 02:44:58;;;;;;;15.20;12.77;;;6.10;99.90;;;;;;4991206;28;20437;-24
2020/12/18 02:47:44;;;;;;;16.77;11.90;;;6.00;99.90;;;;;;4991905;28;20460;-24
2020/12/18 02:50:24;;;;;;;16.37;14.67;;;6.00;99.90;;;;;;4992238;28;20490;-24
2020/12/18 02:52:57;;;;;;;17.93;15.20;;;6.00;99.90;;;;;;4977661;28;20818;-24
2020/12/18 02:55:46;;;;;;;19.33;16.10;;;6.00;99.90;;;;;;4993783;28;20464;-24
2020/12/18 02:58:45;;;;;;;18.63;14.40;;;6.00;99.90;;;;;;4975683;28;20480;-24
2020/12/18 03:01:12;;;;;;;17.83;15.63;;;5.90;99.90;;;;;;4974586;28;20496;-24
2020/12/18 03:03:40;;;;;;;16.30;14.70;;;5.80;99.90;;;;;;4974978;28;20918;-24
2020/12/18 03:06:27;;;;;;;21.13;16.50;;;5.80;99.90;;;;;;4974164;28;20514;-24
2020/12/18 03:08:55;;;;;;;16.90;15.13;;;5.70;99.90;;;;;;4975296;28;20452;-24
2020/12/18 03:11:22;;;;;;;18.37;15.97;;;5.80;99.90;;;;;;4972890;28;20484;-24
2020/12/18 03:13:56;;;;;;;17.53;13.50;;;5.80;99.90;;;;;;4975954;28;20441;-24
2020/12/18 03:16:26;;;;;;;19.70;16.30;;;5.80;99.90;;;;;;4975138;28;20499;-24
2020/12/18 03:19:15;;;;;;;16.63;15.13;;;5.90;99.90;;;;;;4976957;28;20485;-24
2020/12/18 03:21:42;;;;;;;14.33;12.93;;;5.90;99.90;;;;;;4993551;28;20542;-24
2020/12/18 03:24:35;;;;;;;16.43;14.83;;;5.90;99.90;;;;;;4998015;28;20444;-24
2020/12/18 03:27:27;;;;;;;15.43;13.80;;;6.00;99.90;;;;;;4997233;28;20743;-24
2020/12/18 03:30:04;;;;;;;16.40;14.47;;;6.00;99.90;;;;;;4997205;28;20486;-24
2020/12/18 03:32:31;;;;;;;17.97;14.50;;;6.00;99.90;;;;;;4994991;28;20865;-24
2020/12/18 03:35:09;;;;;;;16.87;14.23;;;6.00;99.90;;;;;;4993420;28;20444;-24
2020/12/18 03:37:39;;;;;;;21.23;16.23;;;5.90;99.90;;;;;;5006062;28;20869;-24
2020/12/18 03:40:08;;;;;;;14.73;12.83;;;5.80;99.90;;;;;;4994493;28;20440;-24
2020/12/18 03:42:41;;;;;;;18.43;14.70;;;5.70;99.90;;;;;;5009852;28;20579;-24
2020/12/18 03:45:09;;;;;;;16.30;14.57;;;5.80;99.90;;;;;;5009628;28;20447;-25
2020/12/18 03:47:56;;;;;;;15.93;13.63;;;5.90;99.90;;;;;;4993158;28;20514;-25
2020/12/18 03:50:27;;;;;;;14.23;12.17;;;6.00;99.90;;;;;;4992513;28;20440;-24
2020/12/18 03:52:59;;;;;;;12.80;11.40;;;6.00;99.90;;;;;;4992216;28;20734;-25
2020/12/18 03:55:28;;;;;;;14.90;12.50;;;6.00;99.90;;;;;;4993094;28;20528;-25
2020/12/18 03:58:20;;;;;;;13.33;11.93;;;6.00;99.90;;;;;;4992553;28;21053;-24
2020/12/18 04:00:57;;;;;;;13.57;11.17;;;6.10;99.90;;;;;;4989211;28;21138;-24
2020/12/18 04:03:24;;;;;;;13.77;12.37;;;6.10;99.90;;;;;;5007985;28;20854;-24
2020/12/18 04:05:54;;;;;;;13.63;12.20;;;6.20;99.90;;;;;;5007735;28;20544;-24
2020/12/18 04:08:22;;;;;;;15.67;14.13;;;6.20;99.90;;;;;;5008963;28;20947;-24
2020/12/18 04:11:08;;;;;;;16.20;14.23;;;6.20;99.90;;;;;;4993098;28;20456;-24
2020/12/18 04:13:51;;;;;;;16.87;13.63;;;6.20;99.90;;;;;;5008982;28;20479;-24
2020/12/18 04:16:22;;;;;;;14.57;13.07;;;6.30;99.90;;;;;;5008300;28;20472;-24
2020/12/18 04:18:50;;;;;;;14.80;13.40;;;6.30;99.90;;;;;;4992576;28;20467;-24
2020/12/18 04:21:19;;;;;;;15.17;13.57;;;6.30;99.90;;;;;;5008052;28;20550;-24
2020/12/18 04:23:55;;;;;;;17.80;13.80;;;6.40;99.90;;;;;;5008070;28;20491;-24
2020/12/18 04:26:34;;;;;;;15.37;13.77;;;6.40;99.90;;;;;;5004672;28;20508;-24
2020/12/18 04:29:03;;;;;;;15.40;13.43;;;6.40;99.90;;;;;;5007257;28;20428;-24
2020/12/18 04:31:32;;;;;;;16.70;15.00;;;6.40;99.90;;;;;;5007668;28;20440;-24
2020/12/18 04:34:00;;;;;;;15.10;13.70;;;6.50;99.90;;;;;;5007162;28;20441;-24
2020/12/18 04:36:43;;;;;;;17.33;14.17;;;6.50;99.90;;;;;;5007155;28;20579;-24
2020/12/18 04:39:14;;;;;;;16.43;14.73;;;6.50;99.90;;;;;;5007137;28;20963;-24
2020/12/18 04:41:43;;;;;;;16.07;13.67;;;6.50;99.90;;;;;;5006294;28;20476;-24
2020/12/18 04:44:18;;;;;;;13.10;11.80;;;6.50;99.90;;;;;;4990289;28;20440;-24
2020/12/18 04:47:03;;;;;;;14.07;12.63;;;6.50;99.90;;;;;;5005424;28;20448;-24
2020/12/18 04:49:31;;;;;;;12.90;11.57;;;6.50;99.90;;;;;;4990208;28;20518;-24
2020/12/18 04:52:14;;;;;;;14.23;12.63;;;6.50;99.90;;;;;;4989942;28;20440;-24
2020/12/18 04:54:56;;;;;;;13.27;11.90;;;6.50;99.90;;;;;;4989359;28;20486;-24
2020/12/18 04:57:46;;;;;;;13.87;12.57;;;6.50;99.90;;;;;;4990657;28;20503;-24
2020/12/18 05:00:19;;;;;;;14.00;11.70;;;6.40;99.90;;;;;;5004665;28;20760;-24
2020/12/18 05:03:06;;;;;;;17.77;14.47;;;6.40;99.90;;;;;;4989265;28;20603;-24
2020/12/18 05:05:34;;;;;;;14.00;12.50;;;6.40;99.90;;;;;;5004931;28;20738;-24
2020/12/18 05:08:11;;;;;;;13.80;12.43;;;6.30;99.90;;;;;;5005165;28;20440;-25
2020/12/18 05:10:42;;;;;;;14.67;13.27;;;6.20;99.90;;;;;;5004771;28;20571;-24
2020/12/18 05:13:20;;;;;;;16.50;14.53;;;6.10;99.90;;;;;;5002398;28;20499;-24
2020/12/18 05:15:54;;;;;;;15.17;13.67;;;6.00;99.90;;;;;;4988849;28;21103;-24
2020/12/18 05:18:43;;;;;;;14.03;12.43;;;6.00;99.90;;;;;;4989604;28;20488;-24
2020/12/18 05:21:27;;;;;;;13.47;12.07;;;5.90;99.90;;;;;;4988819;28;20476;-24
2020/12/18 05:23:57;;;;;;;21.33;13.50;;;5.80;99.90;;;;;;4987714;28;20947;-24
2020/12/18 05:26:30;;;;;;;13.80;12.40;;;5.70;99.90;;;;;;4986182;28;20451;-24
2020/12/18 05:29:06;;;;;;;12.67;11.37;;;5.70;99.90;;;;;;4986827;28;20870;-24
2020/12/18 05:31:44;;;;;;;12.93;11.63;;;5.70;99.90;;;;;;5000429;28;20452;-24
2020/12/18 05:34:20;;;;;;;13.17;11.87;;;5.60;99.90;;;;;;4982242;28;20534;-24
2020/12/18 05:37:03;;;;;;;12.50;11.33;;;5.60;99.90;;;;;;5001445;28;20451;-24
2020/12/18 05:39:51;;;;;;;12.57;11.43;;;5.60;99.90;;;;;;4984959;28;20467;-24
2020/12/18 05:42:28;;;;;;;14.83;12.80;;;5.60;99.90;;;;;;4983503;28;20542;-24
2020/12/18 05:45:11;;;;;;;12.57;11.33;;;5.60;99.90;;;;;;4966612;28;20450;-24
2020/12/18 05:47:58;;;;;;;15.50;12.80;;;5.60;99.90;;;;;;4984766;28;20436;-24
2020/12/18 05:50:32;;;;;;;17.73;13.00;;;5.40;99.90;;;;;;4999360;28;20467;-24
2020/12/18 05:53:03;;;;;;;18.43;14.33;;;5.40;99.90;;;;;;4981090;28;20909;-24
2020/12/18 05:55:52;;;;;;;15.37;13.77;;;5.40;99.90;;;;;;4996833;28;20459;-24
2020/12/18 05:58:37;;;;;;;16.30;13.73;;;5.40;99.90;;;;;;4998888;28;20460;-24
2020/12/18 06:01:29;;;;;;;13.77;12.30;;;5.30;99.90;;;;;;4978136;28;20484;-24
2020/12/18 06:04:16;;;;;;;15.23;13.43;;;5.40;99.90;;;;;;4980360;28;20456;-24
2020/12/18 06:06:52;;;;;;;16.50;14.70;;;5.40;99.90;;;;;;4981169;28;20460;-24
2020/12/18 06:09:39;;;;;;;15.03;12.13;;;5.50;99.90;;;;;;4997504;28;21311;-24
2020/12/18 06:12:08;;;;;;;15.63;13.40;;;5.60;99.90;;;;;;4982441;28;20436;-24
2020/12/18 06:14:35;;;;;;;16.63;14.60;;;5.60;99.90;;;;;;4992843;28;21279;-24
2020/12/18 06:17:13;;;;;;;15.60;13.57;;;5.70;99.90;;;;;;4995184;28;21082;-24
2020/12/18 06:19:59;;;;;;;16.10;14.40;;;5.70;99.90;;;;;;4992690;28;20533;-24
2020/12/18 06:22:37;;;;;;;15.83;13.90;;;5.80;99.90;;;;;;4994207;28;20487;-24
2020/12/18 06:25:23;;;;;;;19.80;16.07;;;5.80;99.90;;;;;;4981360;28;21245;-24
2020/12/18 06:28:20;;;;;;;18.63;16.63;;;5.80;99.90;;;;;;4977558;28;20586;-24
2020/12/18 06:31:22;;;;;;;25.37;16.17;;;5.80;99.90;;;;;;4994384;28;20440;-24
2020/12/18 06:34:10;;;;;;;16.33;14.60;;;5.70;99.90;;;;;;4980838;28;21046;-24
2020/12/18 06:37:28;;;;;;;17.67;14.87;;;5.60;99.90;;;;;;4961430;28;20522;-24
2020/12/18 06:40:28;;;;;;;15.07;13.53;;;5.50;99.90;;;;;;4961058;28;20567;-24
2020/12/18 06:43:37;;;;;;;17.23;14.97;;;5.40;99.90;;;;;;4961076;28;20930;-24
2020/12/18 06:46:19;;;;;;;16.33;14.60;;;5.30;99.90;;;;;;4960533;28;20546;-24
2020/12/18 06:49:09;;;;;;;18.43;15.33;;;5.20;99.90;;;;;;4962039;28;20465;-24
2020/12/18 06:51:55;;;;;;;17.30;15.17;;;5.10;99.90;;;;;;4958842;28;21131;-24
2020/12/18 06:54:35;;;;;;;16.07;13.43;;;5.00;99.90;;;;;;4977191;28;20940;-24
2020/12/18 06:57:24;;;;;;;16.00;14.03;;;5.00;99.90;;;;;;4959033;28;21048;-24
2020/12/18 06:59:51;;;;;;;18.87;14.67;;;5.00;99.90;;;;;;4975031;28;21196;-23
2020/12/18 07:02:34;;;;;;;14.63;13.07;;;5.00;99.90;;;;;;4980374;28;20503;-25
2020/12/18 07:05:02;;;;;;;22.27;14.60;;;5.10;99.90;;;;;;4973551;28;20790;-25
2020/12/18 07:07:31;;;;;;;16.70;13.93;;;5.20;99.90;;;;;;4971840;28;20465;-25
2020/12/18 07:09:59;;;;;;;15.80;13.00;;;5.40;99.90;;;;;;4972294;28;20452;-25
2020/12/18 07:12:28;;;;;;;13.70;12.33;;;5.50;99.90;;;;;;4972412;28;20724;-25
2020/12/18 07:14:56;;;;;;;17.23;12.60;;;5.60;99.90;;;;;;4971172;28;20495;-25
2020/12/18 07:17:27;;;;;;;12.80;11.37;;;5.60;99.90;;;;;;4970048;28;20475;-25
2020/12/18 07:19:56;;;;;;;15.60;12.90;;;5.70;99.90;;;;;;4971700;28;20916;-25
2020/12/18 07:22:23;;;;;;;15.03;12.87;;;5.70;99.90;;;;;;4970193;28;20500;-25
2020/12/18 07:24:49;;;;;;;13.60;11.80;;;5.60;99.90;;;;;;4970351;28;20597;-25
2020/12/18 07:27:17;;;;;;;15.00;12.97;;;5.60;99.90;;;;;;4969333;28;20661;-25
2020/12/18 07:29:45;;;;;;;18.60;14.20;;;5.50;99.90;;;;;;4964987;28;20444;-25
2020/12/18 07:32:13;;;;;;;18.67;12.07;;;5.40;99.90;;;;;;4963023;28;20448;-25
2020/12/18 07:34:41;;;;;;;13.57;12.10;;;5.30;99.90;;;;;;4971075;28;20808;-25
2020/12/18 07:37:13;;;;;;;14.47;12.17;;;5.30;99.90;;;;;;4965234;28;20444;-25
2020/12/18 07:39:40;;;;;;;13.47;12.07;;;5.20;99.90;;;;;;4967240;28;21214;-25
2020/12/18 07:42:07;;;;;;;14.67;12.83;;;5.20;99.90;;;;;;4968425;28;20982;-25
2020/12/18 07:44:35;;;;;;;15.63;11.80;;;5.10;99.90;;;;;;4968669;28;20452;-25
2020/12/18 07:47:04;;;;;;;12.63;11.33;;;5.10;99.90;;;;;;4968590;28;20979;-25
2020/12/18 07:49:32;;;;;;;13.27;11.40;;;5.10;99.90;;;;;;4967972;28;21121;-25
2020/12/18 07:52:06;;;;;;;14.30;12.23;;;5.10;99.90;;;;;;4966776;28;20456;-25
2020/12/18 07:54:33;;;;;;;12.30;11.10;;;5.10;99.90;;;;;;4965066;28;20605;-25
2020/12/18 07:57:08;;;;;;;17.57;15.47;;;5.10;99.90;;;;;;4964300;28;20464;-25
2020/12/18 07:59:36;;;;;;;17.13;14.13;;;5.10;99.90;;;;;;4951804;28;21352;-25
2020/12/18 08:02:04;;;;;;;17.37;13.00;;;5.10;99.90;;;;;;4937787;28;20484;-25
2020/12/18 08:04:30;;;;;;;16.30;14.70;;;5.10;99.90;;;;;;4947020;28;20496;-25
2020/12/18 08:06:59;;;;;;;12.57;11.27;;;5.10;99.90;;;;;;4964729;28;20520;-25
2020/12/18 08:09:26;;;;;;;14.03;11.63;;;5.10;99.90;;;;;;4966688;28;20514;-25
2020/12/18 08:11:57;;;;;;;12.63;11.10;;;5.20;99.90;;;;;;4968088;28;20510;-25
2020/12/18 08:14:26;;;;;;;13.30;11.23;;;5.20;99.90;;;;;;4966107;28;20452;-25
2020/12/18 08:16:55;;;;;;;13.23;11.23;;;5.20;99.90;;;;;;4933574;28;20557;-24
2020/12/18 08:19:25;;;;;;;12.17;10.87;;;5.20;99.90;;;;;;4865495;28;20550;-24
2020/12/18 08:21:55;;;;;;;15.70;11.97;;;5.30;99.90;;;;;;4947929;28;20476;-24
2020/12/18 08:24:31;;;;;;;13.20;11.20;;;5.40;99.90;;;;;;4965045;28;20551;-25
2020/12/18 08:27:03;;;;;;;13.83;10.10;;;5.40;99.90;;;;;;4959402;28;20495;-25
2020/12/18 08:29:32;;;;;;;13.03;11.10;;;5.50;99.90;;;;;;4966765;28;20610;-25
2020/12/18 08:32:03;;;;;;;12.73;11.33;;;5.60;99.90;;;;;;4965372;28;20880;-25
2020/12/18 08:34:34;;;;;;;15.03;11.50;;;5.60;99.90;;;;;;4963053;28;20455;-25
2020/12/18 08:37:03;;;;;;;14.50;11.73;;;5.70;99.90;;;;;;4964102;28;20539;-25
2020/12/18 08:39:32;;;;;;;12.13;10.87;;;5.80;99.90;;;;;;4965929;28;20460;-25
2020/12/18 08:42:00;;;;;;;12.30;11.00;;;5.90;99.90;;;;;;4962678;28;21212;-24
2020/12/18 08:44:36;;;;;;;13.03;11.10;;;6.00;99.90;;;;;;4964332;28;20490;-25
2020/12/18 08:47:03;;;;;;;12.10;10.80;;;6.10;99.90;;;;;;4962399;28;20452;-25
2020/12/18 08:49:31;;;;;;;18.20;13.00;;;6.10;99.90;;;;;;4965935;28;20527;-25
2020/12/18 08:52:04;;;;;;;13.53;11.07;;;6.20;99.90;;;;;;4963193;28;20584;-25
2020/12/18 08:54:40;;;;;;;13.30;11.30;;;6.40;99.90;;;;;;4963580;28;20444;-25
2020/12/18 08:57:16;;;;;;;12.53;11.20;;;6.50;99.90;;;;;;4966096;28;20546;-25
2020/12/18 09:00:09;;;;;;;21.40;14.50;;;6.50;99.90;;;;;;4949012;28;20463;-25
2020/12/18 09:02:38;;;;;;;12.13;10.90;;;6.60;99.90;;;;;;4965013;28;20482;-25
2020/12/18 09:05:17;;;;;;;14.60;13.07;;;6.70;99.90;;;;;;4963585;28;21420;-25
2020/12/18 09:07:48;;;;;;;14.10;11.23;;;6.80;99.90;;;;;;4962417;28;20506;-25
2020/12/18 09:10:35;;;;;;;14.50;12.30;;;6.90;99.90;;;;;;4961362;28;20869;-25
2020/12/18 09:13:14;;;;;;;13.33;12.07;;;7.10;99.90;;;;;;4961071;28;20750;-25
2020/12/18 09:15:46;;;;;;;18.50;14.43;;;7.10;99.90;;;;;;4964343;28;20436;-25
2020/12/18 09:18:15;;;;;;;14.10;12.57;;;7.20;99.90;;;;;;4960694;28;20448;-25
2020/12/18 09:20:44;;;;;;;18.27;12.90;;;7.30;99.90;;;;;;4961825;28;20459;-25
2020/12/18 09:23:13;;;;;;;17.53;13.30;;;7.40;99.90;;;;;;4963640;28;20499;-25
2020/12/18 09:25:43;;;;;;;15.03;13.30;;;7.60;99.90;;;;;;4961801;28;20432;-25
2020/12/18 09:28:17;;;;;;;15.40;13.80;;;7.60;99.90;;;;;;4963261;28;20456;-25
2020/12/18 09:30:48;;;;;;;15.37;11.57;;;7.80;99.90;;;;;;4928027;28;20445;-25
2020/12/18 09:33:30;;;;;;;15.73;14.10;;;7.80;99.90;;;;;;4922509;29;20899;-25
2020/12/18 09:36:08;;;;;;;13.50;12.10;;;7.60;99.90;;;;;;4924333;29;20528;-25
2020/12/18 09:38:36;;;;;;;14.67;13.13;;;7.70;99.90;;;;;;4922604;29;20487;-25
2020/12/18 09:41:05;;;;;;;15.67;12.70;;;7.80;99.90;;;;;;4923432;29;20899;-25
2020/12/18 09:43:32;;;;;;;18.53;14.40;;;7.90;99.90;;;;;;4922760;28;20525;-25
2020/12/18 09:46:00;;;;;;;14.83;12.60;;;8.00;99.90;;;;;;4921139;29;20438;-25
2020/12/18 09:48:27;;;;;;;15.97;13.77;;;8.10;99.90;;;;;;4936911;28;20553;-25
2020/12/18 09:50:56;;;;;;;15.63;13.97;;;8.20;99.90;;;;;;4919558;28;20464;-25
2020/12/18 09:53:27;;;;;;;19.07;16.10;;;8.40;99.90;;;;;;4923308;29;21161;-25
2020/12/18 09:55:55;;;;;;;16.00;14.33;;;8.50;99.90;;;;;;4920147;29;20556;-25
2020/12/18 09:58:24;;;;;;;15.30;13.70;;;8.60;99.90;;;;;;4921592;28;21204;-25
2020/12/18 10:00:50;;;;;;;17.67;14.30;;;8.60;99.90;;;;;;4925177;29;20451;-25
2020/12/18 10:03:18;;;;;;;15.27;13.43;;;8.70;99.90;;;;;;4926719;28;20505;-25
2020/12/18 10:05:47;;;;;;;13.33;11.37;;;8.80;99.90;;;;;;4927769;28;20461;-25
2020/12/18 10:08:14;;;;;;;21.97;13.20;;;8.70;99.90;;;;;;4922880;28;20457;-25
2020/12/18 10:10:44;;;;;;;13.97;12.00;;;8.80;99.90;;;;;;4927313;28;20476;-25
2020/12/18 10:13:11;;;;;;;14.50;11.77;;;8.90;99.90;;;;;;4923203;28;21134;-25
2020/12/18 10:15:38;;;;;;;14.20;11.73;;;8.90;99.90;;;;;;4928306;28;20461;-25
2020/12/18 10:18:06;;;;;;;13.93;12.40;;;8.90;99.90;;;;;;4924165;29;20560;-25
2020/12/18 10:20:32;;;;;;;17.40;11.97;;;9.20;99.90;;;;;;4928466;29;20986;-25
2020/12/18 10:22:59;;;;;;;15.10;12.53;;;9.40;99.90;;;;;;4928810;28;20497;-25
2020/12/18 10:25:27;;;;;;;17.30;12.83;;;9.60;99.90;;;;;;4927976;28;20442;-25
2020/12/18 10:27:55;;;;;;;16.70;14.77;;;9.70;99.90;;;;;;4928309;28;20470;-25
2020/12/18 10:30:22;;;;;;;16.20;12.53;;;9.70;99.90;;;;;;4957924;28;20646;-25
2020/12/18 10:32:50;;;;;;;13.70;11.13;;;9.70;99.90;;;;;;4961122;28;20452;-25
2020/12/18 10:35:18;;;;;;;13.20;11.00;;;9.70;99.90;;;;;;4962525;28;20459;-25
2020/12/18 10:37:47;;;;;;;12.47;11.17;;;9.70;99.90;;;;;;4965200;28;20490;-25
2020/12/18 10:40:18;;;;;;;17.47;12.87;;;9.50;99.90;;;;;;4968043;28;20444;-25
2020/12/18 10:42:45;;;;;;;14.73;13.13;;;9.50;99.90;;;;;;4968803;28;20884;-25
2020/12/18 10:45:13;;;;;;;14.60;13.00;;;9.50;99.90;;;;;;4963165;28;20467;-25
2020/12/18 10:47:39;;;;;;;14.00;12.50;;;9.50;99.90;;;;;;4963658;28;20436;-25
2020/12/18 10:50:08;;;;;;;16.03;12.43;;;9.50;99.90;;;;;;4965791;28;20452;-25
2020/12/18 10:52:34;;;;;;;18.07;16.37;;;9.50;99.90;;;;;;4963511;28;20550;-25
2020/12/18 10:55:01;;;;;;;13.83;12.43;;;9.60;99.90;;;;;;4961576;28;20500;-25
2020/12/18 10:57:28;;;;;;;15.03;12.70;;;9.70;99.90;;;;;;4964952;28;20487;-25
2020/12/18 10:59:55;;;;;;;15.00;12.30;;;9.90;99.90;;;;;;4962228;28;20745;-26
2020/12/18 11:02:24;;;;;;;14.17;11.90;;;10.10;99.90;;;;;;4963393;28;20526;-25
2020/12/18 11:11:14;;;;;;;13.53;12.13;;;10.30;99.90;;;;;;4962789;28;20484;-25
2020/12/18 11:13:42;;;;;;;17.50;13.87;;;10.40;99.90;;;;;;4962356;28;20412;-25
2020/12/18 11:16:09;;;;;;;15.87;12.63;;;10.50;99.90;;;;;;4965672;28;20441;-25
2020/12/18 11:18:36;;;;;;;16.70;13.93;;;10.60;99.90;;;;;;4966546;28;20499;-25
2020/12/18 11:21:04;;;;;;;13.93;12.37;;;10.70;99.90;;;;;;4964948;28;21145;-25
2020/12/18 11:23:32;;;;;;;14.80;11.93;;;10.70;99.90;;;;;;4966511;28;20469;-25
2020/12/18 11:25:59;;;;;;;16.73;13.47;;;10.70;99.90;;;;;;4965997;28;20460;-25
2020/12/18 11:28:25;;;;;;;13.33;11.67;;;10.80;99.90;;;;;;4966686;28;20487;-25
2020/12/18 11:30:55;;;;;;;16.00;12.10;;;10.90;99.90;;;;;;4966441;28;20478;-25
2020/12/18 11:33:22;;;;;;;22.53;16.43;;;11.00;99.90;;;;;;4967481;28;20576;-25
2020/12/18 11:35:50;;;;;;;17.70;14.37;;;11.00;99.90;;;;;;4968874;28;20449;-25
2020/12/18 11:38:16;;;;;;;13.17;11.77;;;11.00;99.90;;;;;;4964477;28;20460;-23
2020/12/18 11:40:43;;;;;;;13.13;11.33;;;11.10;99.90;;;;;;4968994;28;20457;-25
2020/12/18 11:43:10;;;;;;;11.67;10.40;;;11.10;99.90;;;;;;4966639;28;20483;-25
2020/12/18 11:45:36;;;;;;;13.67;12.27;;;11.30;99.90;;;;;;4969780;28;20448;-25
2020/12/18 11:48:03;;;;;;;12.37;9.93;;;11.40;99.90;;;;;;4954720;28;20525;-25
2020/12/18 11:50:30;;;;;;;14.10;10.53;;;11.60;99.90;;;;;;4953957;28;20441;-23
2020/12/18 11:52:59;;;;;;;14.30;11.27;;;11.70;99.90;;;;;;4965232;28;20440;-24
2020/12/18 11:55:26;;;;;;;13.37;11.97;;;11.70;99.90;;;;;;4966630;28;20542;-24
2020/12/18 11:58:05;;;;;;;14.57;12.07;;;11.80;99.90;;;;;;4966856;28;20444;-26
2020/12/18 12:00:34;;;;;;;13.60;11.07;;;11.80;99.90;;;;;;4969135;28;21332;-26
2020/12/18 12:03:01;;;;;;;12.43;10.60;;;11.70;99.90;;;;;;4969637;28;20464;-26
2020/12/18 12:05:27;;;;;;;14.40;11.50;;;11.70;99.90;;;;;;4951602;28;20440;-24
2020/12/18 12:07:54;;;;;;;14.43;11.73;;;11.80;99.90;;;;;;4970755;28;20471;-26
2020/12/18 12:10:21;;;;;;;14.00;11.70;;;11.90;99.90;;;;;;4972086;28;20487;-24
2020/12/18 12:12:48;;;;;;;14.33;10.70;;;12.10;99.90;;;;;;4973739;28;20510;-24
2020/12/18 12:15:16;;;;;;;11.50;10.30;;;12.00;99.90;;;;;;4971612;28;20563;-25
2020/12/18 12:17:43;;;;;;;13.17;10.90;;;12.00;99.90;;;;;;4974241;28;20448;-24
2020/12/18 12:20:09;;;;;;;15.23;11.70;;;12.10;99.90;;;;;;4968570;28;20977;-24
2020/12/18 12:22:38;;;;;;;12.40;9.60;;;12.30;99.90;;;;;;4973664;28;20520;-25
2020/12/18 12:25:04;;;;;;;11.13;9.97;;;12.40;99.90;;;;;;4971148;28;20494;-24
2020/12/18 12:27:32;;;;;;;11.50;10.10;;;12.40;99.90;;;;;;4968887;28;20444;-24
2020/12/18 12:30:01;;;;;;;10.60;9.57;;;12.30;99.90;;;;;;4970878;28;20466;-24
2020/12/18 12:32:28;;;;;;;10.87;9.83;;;12.30;99.90;;;;;;4972805;28;20506;-24
2020/12/18 12:34:55;;;;;;;9.27;8.33;;;12.40;99.90;;;;;;4971120;28;20463;-24
2020/12/18 12:37:23;;;;;;;9.70;7.83;;;12.50;99.90;;;;;;4953367;28;20463;-25
2020/12/18 12:39:50;;;;;;;8.90;8.00;;;12.60;99.90;;;;;;4971577;28;20463;-24
2020/12/18 12:42:17;;;;;;;12.47;10.10;;;12.70;99.90;;;;;;4973059;28;20543;-25
2020/12/18 12:44:44;;;;;;;11.20;9.27;;;12.80;99.90;;;;;;4980953;28;20464;-25
2020/12/18 12:47:11;;;;;;;11.90;10.57;;;12.90;99.90;;;;;;4991152;28;20817;-25
2020/12/18 12:49:38;;;;;;;11.53;9.90;;;12.90;99.90;;;;;;4991144;28;21148;-25
2020/12/18 12:52:04;;;;;;;9.23;8.23;;;12.90;99.90;;;;;;4980542;28;20491;-25
2020/12/18 12:54:31;;;;;;;10.90;8.67;;;12.90;99.90;;;;;;4972146;28;20483;-26
2020/12/18 12:56:58;;;;;;;10.03;8.77;;;12.90;99.90;;;;;;4971035;28;20487;-23
2020/12/18 12:59:25;;;;;;;12.53;9.10;;;12.80;99.90;;;;;;4973381;28;20440;-26
2020/12/18 13:01:53;;;;;;;10.10;8.53;;;12.60;99.90;;;;;;4974628;28;20496;-25
2020/12/18 13:04:20;;;;;;;8.93;8.03;;;12.60;99.90;;;;;;4973532;28;20440;-25
2020/12/18 13:06:47;;;;;;;10.97;9.60;;;12.50;99.90;;;;;;4974986;28;20833;-24
2020/12/18 13:09:14;;;;;;;10.00;9.03;;;12.60;99.90;;;;;;4972074;28;20957;-24